Time;durP1;ratioP1;P1;durP2;ratioP2;P2;SDS_P1;SDS_P2;PMS_P1;PMS_P2;Temp;Humidity;BMP_temperature;BMP_pressure;BME280_temperature;BME280_humidity;BME280_pressure;Samples;Min_cycle;Max_cycle;Signal;HPM_P1;HPM_P2
2022/02/24 00:00:28;;;;;;;13.07;3.03;;;7.30;74.60;;;;;;5035539;28;20184;-90
2022/02/24 00:02:54;;;;;;;7.50;2.10;;;7.40;74.30;;;;;;5036844;28;20646;-89
2022/02/24 00:05:20;;;;;;;11.27;2.20;;;7.40;74.50;;;;;;5036238;28;20173;-90
2022/02/24 00:07:45;;;;;;;7.63;2.63;;;7.50;74.00;;;;;;5035135;28;20712;-89
2022/02/24 00:10:13;;;;;;;2.10;1.60;;;7.40;73.90;;;;;;5036123;28;20184;-89
2022/02/24 00:12:39;;;;;;;11.63;3.70;;;7.40;74.40;;;;;;5034782;28;20173;-89
2022/02/24 00:15:06;;;;;;;10.83;2.90;;;7.40;74.30;;;;;;5034795;28;20223;-88
2022/02/24 00:17:32;;;;;;;7.73;2.60;;;7.30;75.00;;;;;;5034501;28;20209;-89
2022/02/24 00:19:58;;;;;;;6.40;2.67;;;7.40;74.80;;;;;;5035983;28;20165;-89
2022/02/24 00:22:24;;;;;;;5.33;2.50;;;7.40;74.70;;;;;;5034641;28;20176;-89
2022/02/24 00:24:51;;;;;;;7.00;2.87;;;7.40;74.90;;;;;;5035906;28;20650;-89
2022/02/24 00:27:16;;;;;;;3.47;1.67;;;7.30;74.60;;;;;;5035546;28;20223;-90
2022/02/24 00:29:42;;;;;;;11.43;3.20;;;7.40;74.60;;;;;;5036490;28;20188;-90
2022/02/24 00:32:07;;;;;;;17.83;3.93;;;7.40;74.40;;;;;;5035707;28;20187;-90
2022/02/24 00:34:34;;;;;;;10.43;2.97;;;7.40;74.60;;;;;;5036857;28;20208;-90
2022/02/24 00:37:01;;;;;;;5.43;2.17;;;7.40;74.80;;;;;;5034858;28;20587;-90
2022/02/24 00:39:27;;;;;;;8.07;2.47;;;7.40;74.30;;;;;;5034642;28;20219;-90
2022/02/24 00:41:53;;;;;;;7.57;2.67;;;7.30;74.20;;;;;;5036535;28;20203;-89
2022/02/24 00:44:19;;;;;;;12.53;2.77;;;7.30;74.70;;;;;;5035764;28;20349;-89
2022/02/24 00:46:45;;;;;;;8.57;2.80;;;7.30;74.20;;;;;;5035555;28;20185;-89
2022/02/24 00:49:11;;;;;;;10.97;3.20;;;7.20;74.70;;;;;;5035461;28;20200;-89
2022/02/24 00:51:37;;;;;;;9.90;2.80;;;7.10;75.40;;;;;;5035299;28;20184;-89
2022/02/24 00:54:03;;;;;;;5.83;2.07;;;7.00;75.40;;;;;;5035222;28;20177;-89
2022/02/24 00:56:29;;;;;;;5.80;3.17;;;7.00;75.50;;;;;;5035474;28;20214;-90
2022/02/24 00:58:54;;;;;;;8.47;2.97;;;6.90;75.70;;;;;;5035218;28;20193;-90
2022/02/24 01:01:20;;;;;;;4.20;1.97;;;6.90;75.90;;;;;;5036110;28;20200;-90
2022/02/24 01:03:45;;;;;;;6.57;2.70;;;6.80;76.00;;;;;;5036738;28;20686;-90
2022/02/24 01:06:11;;;;;;;5.60;2.60;;;6.90;76.40;;;;;;5036516;28;20296;-90
2022/02/24 01:08:37;;;;;;;10.33;2.50;;;6.80;76.20;;;;;;5036372;28;20207;-90
2022/02/24 01:11:03;;;;;;;4.50;2.20;;;6.80;76.50;;;;;;5036767;28;20203;-90
2022/02/24 01:13:29;;;;;;;4.10;1.93;;;6.90;76.40;;;;;;5036157;28;20705;-90
2022/02/24 01:15:55;;;;;;;15.00;3.57;;;6.80;76.30;;;;;;5035618;28;20172;-90
2022/02/24 01:18:20;;;;;;;11.43;3.27;;;6.90;76.30;;;;;;5034559;28;20216;-90
2022/02/24 01:20:46;;;;;;;8.17;3.23;;;6.80;76.50;;;;;;5034415;28;20182;-89
2022/02/24 01:23:12;;;;;;;11.07;3.83;;;6.70;77.00;;;;;;5033338;28;20172;-89
2022/02/24 01:25:44;;;;;;;9.07;2.93;;;6.70;77.20;;;;;;5033218;28;20180;-88
2022/02/24 01:28:09;;;;;;;5.83;2.67;;;6.70;77.20;;;;;;5034426;28;20204;-89
2022/02/24 01:30:35;;;;;;;11.40;3.30;;;6.60;77.30;;;;;;5034461;28;20199;-88
2022/02/24 01:33:00;;;;;;;8.93;3.03;;;6.60;77.30;;;;;;5034880;28;20175;-89
2022/02/24 01:35:26;;;;;;;7.37;2.73;;;6.60;77.90;;;;;;5034377;28;20650;-89
2022/02/24 01:37:52;;;;;;;10.30;3.10;;;6.60;77.70;;;;;;5034957;28;20547;-89
2022/02/24 01:40:18;;;;;;;14.73;3.33;;;6.60;77.80;;;;;;5033179;28;20176;-89
2022/02/24 01:42:44;;;;;;;7.93;3.27;;;6.70;77.60;;;;;;5034308;28;20657;-88
2022/02/24 01:45:11;;;;;;;14.07;4.63;;;6.70;77.80;;;;;;5034769;28;20173;-89
2022/02/24 01:47:37;;;;;;;9.90;4.43;;;6.70;77.80;;;;;;5034935;28;20196;-89
2022/02/24 01:50:05;;;;;;;8.63;3.47;;;6.70;77.90;;;;;;5033599;28;20276;-88
2022/02/24 01:52:31;;;;;;;10.50;3.83;;;6.70;78.00;;;;;;5033307;28;20187;-90
2022/02/24 01:54:56;;;;;;;11.73;3.43;;;6.80;78.10;;;;;;5033734;28;20204;-90
2022/02/24 01:57:22;;;;;;;8.50;3.53;;;6.80;77.60;;;;;;5034664;28;20200;-90
2022/02/24 01:59:49;;;;;;;6.07;3.00;;;6.80;77.60;;;;;;5034771;28;20196;-90
2022/02/24 02:02:15;;;;;;;11.57;3.47;;;6.80;78.00;;;;;;5033286;28;20176;-89
2022/02/24 02:04:42;;;;;;;13.93;3.43;;;6.80;77.90;;;;;;5033098;28;20732;-89
2022/02/24 02:07:08;;;;;;;8.70;3.30;;;6.80;78.50;;;;;;5032642;28;20203;-88
2022/02/24 02:09:34;;;;;;;7.23;3.13;;;6.80;78.50;;;;;;5033791;28;20227;-89
2022/02/24 02:12:00;;;;;;;9.70;3.03;;;6.80;78.30;;;;;;5032788;28;20185;-89
2022/02/24 02:14:26;;;;;;;9.70;3.57;;;6.80;78.30;;;;;;5032665;28;20311;-88
2022/02/24 02:16:52;;;;;;;9.10;3.70;;;6.80;78.20;;;;;;5033620;28;20550;-88
2022/02/24 02:19:18;;;;;;;10.17;3.47;;;6.80;78.00;;;;;;5032558;28;20200;-88
2022/02/24 02:21:45;;;;;;;10.00;3.87;;;6.80;77.80;;;;;;5033718;28;20188;-88
2022/02/24 02:24:11;;;;;;;7.13;3.70;;;6.80;78.00;;;;;;5032440;28;20654;-88
2022/02/24 02:26:37;;;;;;;8.80;3.47;;;6.80;78.10;;;;;;5032651;28;20270;-89
2022/02/24 02:29:05;;;;;;;14.20;3.80;;;6.80;78.40;;;;;;5033765;28;20663;-88
2022/02/24 02:31:31;;;;;;;12.53;3.43;;;6.80;78.40;;;;;;5032197;28;20181;-89
2022/02/24 02:34:06;;;;;;;9.43;3.40;;;6.80;78.40;;;;;;5032464;28;20191;-88
2022/02/24 02:36:33;;;;;;;7.40;3.37;;;6.80;78.50;;;;;;5032046;28;20207;-88
2022/02/24 02:38:58;;;;;;;5.13;2.47;;;6.70;78.70;;;;;;5033222;28;20197;-88
2022/02/24 02:41:28;;;;;;;11.10;4.17;;;6.80;77.70;;;;;;5031999;28;20190;-88
2022/02/24 02:43:54;;;;;;;10.70;4.20;;;6.80;78.20;;;;;;5033224;28;20176;-88
2022/02/24 02:46:20;;;;;;;8.90;3.40;;;6.80;77.90;;;;;;5031955;28;20592;-88
2022/02/24 02:48:45;;;;;;;10.53;3.90;;;6.90;77.60;;;;;;5031932;28;20197;-88
2022/02/24 02:51:11;;;;;;;6.23;3.40;;;6.80;78.00;;;;;;5031856;28;20173;-88
2022/02/24 02:53:37;;;;;;;7.50;4.13;;;6.90;77.30;;;;;;5032152;28;20315;-88
2022/02/24 02:56:03;;;;;;;13.03;4.03;;;7.00;77.10;;;;;;5031938;28;20275;-88
2022/02/24 02:58:28;;;;;;;11.10;4.03;;;7.00;77.20;;;;;;5032325;28;20196;-89
2022/02/24 03:00:54;;;;;;;9.13;4.23;;;7.00;77.20;;;;;;5031664;28;20751;-88
2022/02/24 03:03:24;;;;;;;5.80;2.63;;;7.00;76.20;;;;;;5033571;28;20541;-88
2022/02/24 03:05:50;;;;;;;8.87;3.73;;;7.00;76.20;;;;;;5033299;28;20156;-88
2022/02/24 03:08:16;;;;;;;8.57;3.77;;;7.00;76.20;;;;;;5031692;28;20269;-88
2022/02/24 03:10:41;;;;;;;9.00;4.57;;;7.00;76.00;;;;;;5032197;28;20577;-88
2022/02/24 03:13:07;;;;;;;9.23;3.37;;;7.00;76.10;;;;;;5032798;28;20208;-88
2022/02/24 03:15:32;;;;;;;10.20;4.30;;;7.10;74.70;;;;;;5031958;28;20643;-88
2022/02/24 03:17:59;;;;;;;6.67;2.60;;;7.20;74.50;;;;;;5031454;28;20243;-88
2022/02/24 03:20:30;;;;;;;4.03;2.43;;;7.30;74.10;;;;;;5031737;28;20176;-88
2022/02/24 03:22:56;;;;;;;8.17;2.97;;;7.20;74.20;;;;;;5032953;28;20251;-88
2022/02/24 03:25:21;;;;;;;8.20;3.93;;;7.20;74.70;;;;;;5036607;28;20212;-88
2022/02/24 03:27:47;;;;;;;8.97;3.30;;;7.20;74.20;;;;;;5036472;28;20211;-88
2022/02/24 03:30:12;;;;;;;3.23;2.30;;;7.10;74.50;;;;;;5035322;28;20181;-88
2022/02/24 03:32:39;;;;;;;13.47;5.43;;;7.10;74.20;;;;;;5035214;28;20181;-88
2022/02/24 03:35:05;;;;;;;8.97;3.47;;;7.20;73.40;;;;;;5035189;28;20180;-88
2022/02/24 03:37:31;;;;;;;6.57;2.80;;;7.20;73.10;;;;;;5035151;28;20254;-88
2022/02/24 03:39:56;;;;;;;8.93;2.73;;;7.30;72.40;;;;;;5035110;28;20172;-88
2022/02/24 03:42:23;;;;;;;5.43;2.83;;;7.30;72.00;;;;;;5036569;28;20311;-88
2022/02/24 03:44:48;;;;;;;5.97;2.80;;;7.30;72.70;;;;;;5035261;28;20181;-88
2022/02/24 03:47:14;;;;;;;6.87;2.93;;;7.30;73.10;;;;;;5034866;28;20183;-88
2022/02/24 03:49:39;;;;;;;4.97;3.00;;;7.20;73.20;;;;;;5034942;28;20187;-88
2022/02/24 03:52:05;;;;;;;8.17;3.13;;;7.30;72.80;;;;;;5035212;28;20192;-88
2022/02/24 03:54:30;;;;;;;5.77;3.07;;;7.30;72.70;;;;;;5035598;28;20215;-88
2022/02/24 03:56:56;;;;;;;9.83;3.80;;;7.30;73.10;;;;;;5034779;28;20200;-88
2022/02/24 03:59:21;;;;;;;9.57;3.67;;;7.30;72.40;;;;;;5035848;28;20254;-88
2022/02/24 04:01:47;;;;;;;5.27;2.73;;;7.30;71.90;;;;;;5034725;28;20181;-88
2022/02/24 04:04:15;;;;;;;8.87;2.83;;;7.30;72.90;;;;;;5036165;28;20177;-88
2022/02/24 04:06:40;;;;;;;8.10;3.30;;;7.20;73.30;;;;;;5034527;28;20268;-88
2022/02/24 04:09:06;;;;;;;13.50;3.90;;;7.20;72.90;;;;;;5034681;28;20334;-88
2022/02/24 04:11:31;;;;;;;5.20;2.17;;;7.20;72.70;;;;;;5034960;28;20207;-88
2022/02/24 04:13:57;;;;;;;9.73;3.20;;;7.20;72.80;;;;;;5035634;28;20180;-88
2022/02/24 04:16:23;;;;;;;4.37;2.53;;;7.30;71.80;;;;;;5034390;28;20181;-88
2022/02/24 04:18:48;;;;;;;6.73;2.67;;;7.30;71.30;;;;;;5034232;28;20200;-88
2022/02/24 04:21:14;;;;;;;6.17;2.90;;;7.30;71.40;;;;;;5034420;28;20185;-88
2022/02/24 04:23:39;;;;;;;5.77;2.20;;;7.30;71.70;;;;;;5034406;28;20181;-89
2022/02/24 04:26:05;;;;;;;7.87;2.27;;;7.30;71.10;;;;;;5035740;28;20181;-88
2022/02/24 04:28:30;;;;;;;6.27;2.50;;;7.30;71.50;;;;;;5035191;28;20197;-88
2022/02/24 04:30:56;;;;;;;6.53;1.93;;;7.30;70.70;;;;;;5035198;28;20169;-88
2022/02/24 04:33:22;;;;;;;3.50;1.83;;;7.20;70.70;;;;;;5034250;28;20179;-88
2022/02/24 04:35:47;;;;;;;4.77;2.10;;;7.30;69.30;;;;;;5032978;28;20183;-88
2022/02/24 04:38:13;;;;;;;4.30;1.80;;;7.40;69.00;;;;;;5033810;28;20266;-88
2022/02/24 04:40:41;;;;;;;11.73;3.13;;;7.30;69.40;;;;;;5034028;28;20173;-88
2022/02/24 04:43:07;;;;;;;6.70;2.13;;;7.30;69.90;;;;;;5035474;28;20615;-88
2022/02/24 04:45:32;;;;;;;4.37;2.43;;;7.20;70.90;;;;;;5035630;28;20200;-88
2022/02/24 04:47:58;;;;;;;6.93;2.53;;;7.20;69.80;;;;;;5035571;28;20204;-88
2022/02/24 04:50:23;;;;;;;7.80;2.43;;;7.30;69.70;;;;;;5034757;28;20188;-88
2022/02/24 04:52:49;;;;;;;4.33;2.20;;;7.30;69.30;;;;;;5033932;28;20234;-88
2022/02/24 04:55:14;;;;;;;7.47;2.07;;;7.20;70.10;;;;;;5035585;28;20199;-88
2022/02/24 04:57:40;;;;;;;7.00;2.70;;;7.20;70.10;;;;;;5034511;28;20213;-88
2022/02/24 05:00:07;;;;;;;8.37;3.37;;;7.20;70.60;;;;;;5034193;28;20553;-88
2022/02/24 05:02:32;;;;;;;12.47;3.53;;;7.30;69.70;;;;;;5034184;28;20173;-88
2022/02/24 05:04:58;;;;;;;9.07;3.43;;;7.20;70.80;;;;;;5033483;28;20180;-88
2022/02/24 05:07:23;;;;;;;8.70;2.90;;;7.10;71.90;;;;;;5033506;28;20263;-88
2022/02/24 05:09:49;;;;;;;6.20;2.80;;;7.10;71.60;;;;;;5033560;28;20238;-88
2022/02/24 05:12:15;;;;;;;7.27;2.50;;;7.20;70.90;;;;;;5034861;28;20180;-88
2022/02/24 05:14:40;;;;;;;6.27;2.37;;;7.10;71.40;;;;;;5033432;28;20192;-88
2022/02/24 05:17:06;;;;;;;8.90;2.57;;;7.10;71.40;;;;;;5033739;28;20207;-88
2022/02/24 05:19:32;;;;;;;10.83;3.07;;;7.10;71.90;;;;;;5033540;28;20200;-88
2022/02/24 05:21:57;;;;;;;6.30;2.17;;;7.00;72.30;;;;;;5033332;28;20187;-88
2022/02/24 05:24:23;;;;;;;5.97;2.30;;;7.00;72.90;;;;;;5033332;28;20180;-88
2022/02/24 05:26:49;;;;;;;6.73;2.80;;;7.00;72.30;;;;;;5033089;28;20177;-88
2022/02/24 05:29:14;;;;;;;9.73;2.53;;;7.10;72.00;;;;;;5033062;28;20200;-88
2022/02/24 05:31:40;;;;;;;6.60;2.83;;;7.00;72.80;;;;;;5034310;28;20211;-88
2022/02/24 05:34:05;;;;;;;6.90;2.40;;;6.90;73.30;;;;;;5032949;28;20204;-88
2022/02/24 05:36:31;;;;;;;5.53;2.60;;;6.90;73.90;;;;;;5032816;28;20596;-88
2022/02/24 05:38:57;;;;;;;7.63;2.80;;;6.80;74.70;;;;;;5032869;28;20193;-88
2022/02/24 05:41:24;;;;;;;10.07;3.60;;;6.90;74.00;;;;;;5033301;28;20187;-88
2022/02/24 05:43:51;;;;;;;13.03;3.20;;;6.80;74.60;;;;;;5034700;28;20515;-90
2022/02/24 05:46:17;;;;;;;9.93;3.40;;;6.80;75.00;;;;;;5032604;28;20700;-89
2022/02/24 05:48:44;;;;;;;9.70;3.17;;;6.70;75.40;;;;;;5034164;28;20215;-90
2022/02/24 05:51:11;;;;;;;14.07;3.33;;;6.70;75.90;;;;;;5032857;28;20226;-89
2022/02/24 05:53:37;;;;;;;9.47;3.33;;;6.70;75.80;;;;;;5034088;28;20194;-89
2022/02/24 05:56:02;;;;;;;8.30;3.60;;;6.70;75.80;;;;;;5033091;28;20242;-89
2022/02/24 05:58:28;;;;;;;8.03;2.87;;;6.80;75.50;;;;;;5032761;28;20677;-89
2022/02/24 06:00:53;;;;;;;10.67;3.47;;;6.70;76.40;;;;;;5033351;28;20546;-89
2022/02/24 06:03:19;;;;;;;6.63;3.17;;;6.70;75.80;;;;;;5032774;28;20180;-89
2022/02/24 06:05:46;;;;;;;14.00;4.27;;;6.70;76.60;;;;;;5033649;28;20524;-89
2022/02/24 06:08:12;;;;;;;5.63;3.00;;;6.70;77.10;;;;;;5033918;28;20215;-89
2022/02/24 06:10:37;;;;;;;16.13;4.23;;;6.70;77.20;;;;;;5033738;28;20173;-89
2022/02/24 06:13:03;;;;;;;11.13;3.50;;;6.70;77.00;;;;;;5033812;28;20176;-90
2022/02/24 06:15:30;;;;;;;7.47;4.03;;;6.70;77.50;;;;;;5032605;28;20245;-89
2022/02/24 06:17:55;;;;;;;5.27;3.20;;;6.80;77.30;;;;;;5033712;28;20203;-89
2022/02/24 06:20:21;;;;;;;16.97;4.30;;;6.70;77.50;;;;;;5033512;28;20538;-89
2022/02/24 06:22:48;;;;;;;11.40;4.13;;;6.70;77.60;;;;;;5033500;28;20177;-89
2022/02/24 06:25:13;;;;;;;9.37;3.07;;;6.80;77.50;;;;;;5033688;28;20164;-89
2022/02/24 06:27:39;;;;;;;7.27;3.63;;;6.80;77.30;;;;;;5033461;28;20239;-89
2022/02/24 06:30:05;;;;;;;16.43;5.73;;;6.70;77.60;;;;;;5033453;28;20588;-89
2022/02/24 06:32:31;;;;;;;11.87;4.33;;;6.70;78.10;;;;;;5033730;28;20190;-89
2022/02/24 06:34:56;;;;;;;16.03;4.50;;;6.70;78.10;;;;;;5033442;28;20645;-89
2022/02/24 06:37:23;;;;;;;12.13;4.47;;;6.80;77.70;;;;;;5033285;28;20800;-89
2022/02/24 06:39:49;;;;;;;12.07;4.00;;;6.70;78.10;;;;;;5033743;28;20178;-89
2022/02/24 06:42:14;;;;;;;12.67;4.57;;;6.70;78.00;;;;;;5033224;28;20598;-89
2022/02/24 06:44:40;;;;;;;11.77;4.90;;;6.80;77.80;;;;;;5033317;28;20184;-89
2022/02/24 06:47:06;;;;;;;10.93;4.07;;;6.70;78.20;;;;;;5033510;28;20552;-89
2022/02/24 06:49:31;;;;;;;7.83;4.23;;;6.70;78.10;;;;;;5033309;28;20334;-89
2022/02/24 06:51:58;;;;;;;10.93;3.93;;;6.70;77.70;;;;;;5033494;28;20179;-89
2022/02/24 06:54:25;;;;;;;9.80;4.53;;;6.70;78.30;;;;;;5032297;28;20173;-89
2022/02/24 06:56:51;;;;;;;11.67;5.33;;;6.70;78.40;;;;;;5033282;28;20232;-90
2022/02/24 06:59:16;;;;;;;12.03;5.07;;;6.70;78.50;;;;;;5036301;28;20278;-89
2022/02/24 07:01:43;;;;;;;10.03;5.07;;;6.70;78.00;;;;;;5037264;28;20175;-89
2022/02/24 07:04:08;;;;;;;12.17;4.93;;;6.80;77.50;;;;;;5035941;28;20263;-89
2022/02/24 07:06:34;;;;;;;8.33;5.00;;;6.70;78.40;;;;;;5036084;28;20355;-89
2022/02/24 07:09:00;;;;;;;11.03;4.90;;;6.70;78.10;;;;;;5037247;28;20208;-89
2022/02/24 07:11:25;;;;;;;19.00;5.27;;;6.70;77.90;;;;;;5037558;28;20176;-89
2022/02/24 07:13:51;;;;;;;12.73;5.10;;;6.70;78.20;;;;;;5037152;28;20592;-89
2022/02/24 07:16:17;;;;;;;11.47;5.43;;;6.80;77.20;;;;;;5035827;28;20605;-89
2022/02/24 07:18:42;;;;;;;7.90;4.17;;;6.90;77.20;;;;;;5035743;28;20598;-89
2022/02/24 07:21:08;;;;;;;7.33;4.77;;;6.90;77.20;;;;;;5035629;28;20184;-89
2022/02/24 07:23:34;;;;;;;10.50;3.80;;;6.90;77.20;;;;;;5036596;28;20172;-88
2022/02/24 07:26:00;;;;;;;12.83;5.27;;;6.90;76.90;;;;;;5037130;28;20176;-89
2022/02/24 07:28:26;;;;;;;12.53;5.07;;;6.90;76.80;;;;;;5035608;28;20565;-89
2022/02/24 07:30:52;;;;;;;6.67;3.53;;;6.90;77.00;;;;;;5035559;28;20180;-89
2022/02/24 07:33:18;;;;;;;10.00;4.37;;;6.90;76.90;;;;;;5036744;28;20179;-89
2022/02/24 07:35:43;;;;;;;5.57;3.70;;;6.90;77.10;;;;;;5036694;28;20248;-89
2022/02/24 07:38:09;;;;;;;10.43;4.30;;;6.90;76.70;;;;;;5035244;28;20302;-89
2022/02/24 07:40:34;;;;;;;10.77;5.17;;;6.90;77.00;;;;;;5036693;28;20169;-89
2022/02/24 07:43:00;;;;;;;7.20;3.90;;;7.00;76.30;;;;;;5036596;28;20186;-89
2022/02/24 07:45:26;;;;;;;10.30;4.60;;;7.00;77.10;;;;;;5036599;28;20580;-89
2022/02/24 07:47:51;;;;;;;16.73;4.97;;;6.90;76.80;;;;;;5036437;28;20193;-89
2022/02/24 07:50:17;;;;;;;11.83;5.23;;;7.10;76.20;;;;;;5036645;28;20227;-89
2022/02/24 07:52:46;;;;;;;11.23;6.17;;;7.10;76.70;;;;;;5036879;28;20283;-89
2022/02/24 07:55:13;;;;;;;9.33;5.83;;;7.00;77.10;;;;;;5035429;28;20211;-89
2022/02/24 07:57:46;;;;;;;7.17;3.67;;;7.10;76.40;;;;;;5036445;28;20690;-90
2022/02/24 08:00:14;;;;;;;9.33;4.93;;;7.20;76.10;;;;;;5036557;28;20245;-89
2022/02/24 08:02:41;;;;;;;11.10;4.03;;;7.10;76.40;;;;;;5036430;28;20255;-89
2022/02/24 08:05:07;;;;;;;22.37;5.93;;;7.10;76.50;;;;;;5036381;28;20180;-89
2022/02/24 08:07:33;;;;;;;10.97;3.43;;;7.10;77.00;;;;;;5034789;28;20678;-89
2022/02/24 08:09:58;;;;;;;5.90;4.33;;;7.10;77.10;;;;;;5035880;28;20173;-89
2022/02/24 08:12:39;;;;;;;10.43;3.87;;;7.20;76.80;;;;;;5036085;28;20206;-89
2022/02/24 08:15:08;;;;;;;14.20;5.73;;;7.20;76.50;;;;;;5035917;28;20268;-89
2022/02/24 08:17:34;;;;;;;9.73;4.97;;;7.30;76.20;;;;;;5035740;28;20205;-90
2022/02/24 08:20:01;;;;;;;6.70;3.77;;;7.30;76.90;;;;;;5035969;28;20195;-89
2022/02/24 08:22:26;;;;;;;20.13;6.30;;;7.30;76.60;;;;;;5034982;28;20177;-90
2022/02/24 08:24:52;;;;;;;9.17;4.67;;;7.30;76.20;;;;;;5035332;28;20534;-89
2022/02/24 08:27:18;;;;;;;6.37;3.77;;;7.30;77.30;;;;;;5034389;28;20177;-89
2022/02/24 08:29:43;;;;;;;9.30;4.37;;;7.30;77.30;;;;;;5035761;28;20193;-91
2022/02/24 08:32:09;;;;;;;15.30;5.17;;;7.30;77.20;;;;;;5036905;28;20169;-89
2022/02/24 08:34:34;;;;;;;5.07;3.50;;;7.30;77.10;;;;;;5035721;28;20203;-88
2022/02/24 08:37:00;;;;;;;8.17;3.93;;;7.40;76.70;;;;;;5035709;28;20203;-89
2022/02/24 08:39:26;;;;;;;15.10;4.43;;;7.50;76.30;;;;;;5036653;28;20185;-89
2022/02/24 08:41:51;;;;;;;12.20;4.63;;;7.50;76.30;;;;;;5035747;28;20445;-90
2022/02/24 08:44:18;;;;;;;15.33;3.90;;;7.50;76.10;;;;;;5035641;28;20223;-90
2022/02/24 08:46:44;;;;;;;14.37;5.23;;;7.60;76.80;;;;;;5037509;28;20171;-90
2022/02/24 08:49:12;;;;;;;5.70;3.50;;;7.60;76.60;;;;;;5035779;28;20709;-90
2022/02/24 08:51:38;;;;;;;8.57;3.87;;;7.70;76.50;;;;;;5035725;28;20180;-90
2022/02/24 08:54:03;;;;;;;13.10;4.50;;;7.70;76.10;;;;;;5035523;28;20173;-88
2022/02/24 08:56:29;;;;;;;15.67;4.97;;;7.60;76.70;;;;;;5033782;28;20181;-88
2022/02/24 08:58:54;;;;;;;11.47;3.47;;;7.70;75.90;;;;;;5034054;28;20686;-89
2022/02/24 09:01:20;;;;;;;13.67;3.53;;;7.60;76.40;;;;;;5035836;28;20597;-89
2022/02/24 09:03:45;;;;;;;6.20;2.77;;;7.70;76.00;;;;;;5036051;28;20168;-89
2022/02/24 09:06:11;;;;;;;9.40;3.60;;;7.70;76.30;;;;;;5035312;28;20539;-90
2022/02/24 09:08:37;;;;;;;10.93;4.17;;;7.70;76.30;;;;;;5035929;28;20675;-89
2022/02/24 09:11:03;;;;;;;8.97;3.23;;;7.70;76.40;;;;;;5035476;28;20196;-90
2022/02/24 09:13:29;;;;;;;16.13;3.97;;;7.80;76.20;;;;;;5034089;28;20180;-89
2022/02/24 09:15:54;;;;;;;11.17;4.10;;;7.80;76.00;;;;;;5034236;28;20181;-90
2022/02/24 09:18:20;;;;;;;9.90;3.57;;;7.90;76.60;;;;;;5033997;28;20236;-91
2022/02/24 09:20:45;;;;;;;12.87;3.43;;;8.10;75.90;;;;;;5033799;28;20537;-90
2022/02/24 09:23:12;;;;;;;5.90;2.97;;;8.30;75.20;;;;;;5035383;28;20690;-90
2022/02/24 09:25:39;;;;;;;10.80;4.07;;;8.20;74.80;;;;;;5035823;28;20631;-90
2022/02/24 09:28:04;;;;;;;7.53;2.77;;;8.20;76.30;;;;;;5034871;28;20197;-90
2022/02/24 09:30:31;;;;;;;13.27;2.97;;;8.20;74.60;;;;;;5035021;28;20260;-89
2022/02/24 09:32:56;;;;;;;9.53;2.33;;;8.10;74.60;;;;;;5034080;28;20173;-89
2022/02/24 09:35:23;;;;;;;16.63;4.40;;;8.10;74.80;;;;;;5033592;28;20701;-90
2022/02/24 09:37:48;;;;;;;16.70;3.60;;;8.10;75.20;;;;;;5033834;28;20224;-90
2022/02/24 09:40:14;;;;;;;6.80;2.97;;;8.00;75.30;;;;;;5033603;28;20184;-89
2022/02/24 09:42:42;;;;;;;11.53;4.13;;;8.10;74.70;;;;;;5033373;28;20271;-89
2022/02/24 09:45:09;;;;;;;7.77;2.63;;;8.10;76.00;;;;;;5033445;28;20272;-89
2022/02/24 09:47:39;;;;;;;8.83;3.57;;;8.10;75.30;;;;;;5034270;28;20224;-89
2022/02/24 09:50:07;;;;;;;14.57;3.87;;;8.10;74.60;;;;;;5034413;28;20670;-90
2022/02/24 09:52:32;;;;;;;9.87;3.27;;;8.10;75.80;;;;;;5033714;28;20208;-90
2022/02/24 09:54:58;;;;;;;4.57;2.37;;;8.20;74.10;;;;;;5034291;28;20208;-89
2022/02/24 09:57:23;;;;;;;9.80;3.80;;;8.30;75.00;;;;;;5032926;28;20693;-90
2022/02/24 09:59:49;;;;;;;8.07;2.93;;;8.30;74.40;;;;;;5034376;28;20197;-89
2022/02/24 10:02:20;;;;;;;12.20;2.93;;;8.40;73.30;;;;;;5034311;28;20173;-90
2022/02/24 10:05:06;;;;;;;7.23;3.20;;;8.50;74.20;;;;;;5034997;28;20236;-90
2022/02/24 10:07:35;;;;;;;8.43;2.50;;;8.50;74.30;;;;;;5035252;28;20254;-90
2022/02/24 10:10:31;;;;;;;10.10;2.87;;;8.50;72.80;;;;;;5035837;28;20181;-91
2022/02/24 10:13:12;;;;;;;6.73;2.43;;;8.60;73.60;;;;;;5035811;28;20180;-90
2022/02/24 10:15:42;;;;;;;4.37;2.20;;;8.60;73.40;;;;;;5037140;28;20176;-90
2022/02/24 10:18:13;;;;;;;8.40;2.40;;;8.60;73.80;;;;;;5034394;28;20277;-89
2022/02/24 10:20:48;;;;;;;10.20;3.60;;;8.60;74.10;;;;;;5035181;28;20172;-90
2022/02/24 10:23:25;;;;;;;11.20;3.90;;;8.70;74.30;;;;;;5037299;28;20179;-91
2022/02/24 10:25:51;;;;;;;4.07;2.63;;;8.80;74.50;;;;;;5038455;28;20174;-90
2022/02/24 10:28:32;;;;;;;12.20;3.07;;;8.80;73.40;;;;;;5039439;28;20287;-90
2022/02/24 10:31:03;;;;;;;6.73;2.83;;;8.80;73.00;;;;;;5037980;28;20254;-90
2022/02/24 10:33:30;;;;;;;12.10;3.27;;;8.80;72.40;;;;;;5041460;28;20161;-91
2022/02/24 10:36:09;;;;;;;5.00;2.37;;;8.90;73.70;;;;;;5039174;28;20201;-91
2022/02/24 10:38:36;;;;;;;8.77;3.47;;;8.90;73.30;;;;;;5040048;28;20212;-90
2022/02/24 10:41:01;;;;;;;8.03;3.67;;;8.80;73.50;;;;;;5042233;28;20192;-90
2022/02/24 10:43:31;;;;;;;13.80;3.90;;;8.70;73.50;;;;;;5044040;28;20176;-90
2022/02/24 10:46:13;;;;;;;10.87;3.13;;;8.80;73.20;;;;;;5036501;28;20164;-90
2022/02/24 10:48:54;;;;;;;10.97;5.00;;;8.90;72.90;;;;;;5032849;28;20280;-90
2022/02/24 10:51:31;;;;;;;8.57;3.23;;;8.90;74.10;;;;;;5032853;28;20539;-90
2022/02/24 10:54:04;;;;;;;13.10;3.37;;;8.90;73.20;;;;;;5033012;28;20207;-91
2022/02/24 10:56:31;;;;;;;12.47;3.83;;;9.00;73.30;;;;;;5037036;28;20223;-90
2022/02/24 10:58:57;;;;;;;8.87;3.90;;;9.00;74.50;;;;;;5031934;28;20230;-90
2022/02/24 11:01:29;;;;;;;9.10;3.20;;;9.00;73.30;;;;;;5033312;28;20242;-89
2022/02/24 11:03:56;;;;;;;12.70;4.23;;;8.90;72.90;;;;;;5031764;28;20235;-89
2022/02/24 11:06:24;;;;;;;8.90;3.47;;;9.00;74.10;;;;;;5031720;28;20656;-89
2022/02/24 11:08:51;;;;;;;17.27;4.03;;;9.10;75.20;;;;;;5033105;28;20544;-90
2022/02/24 11:11:25;;;;;;;9.60;3.90;;;9.10;74.20;;;;;;5034565;28;20173;-90
2022/02/24 11:13:52;;;;;;;10.20;3.97;;;9.10;73.80;;;;;;5032867;28;20177;-89
2022/02/24 11:16:18;;;;;;;9.83;3.93;;;9.10;73.80;;;;;;5038937;28;20330;-90
2022/02/24 11:18:44;;;;;;;10.40;3.30;;;9.00;72.80;;;;;;5033378;28;20216;-91
2022/02/24 11:21:12;;;;;;;15.17;3.87;;;9.00;74.50;;;;;;5033868;28;20177;-89
2022/02/24 11:23:41;;;;;;;11.73;4.00;;;8.90;72.90;;;;;;5032285;28;20187;-90
2022/02/24 11:26:22;;;;;;;9.10;3.10;;;8.90;74.30;;;;;;5032847;28;20230;-89
2022/02/24 11:29:15;;;;;;;12.43;3.07;;;9.00;75.00;;;;;;5033452;28;20204;-90
2022/02/24 11:31:41;;;;;;;6.37;2.90;;;8.90;73.40;;;;;;5033017;28;20149;-90
2022/02/24 11:34:06;;;;;;;6.03;3.10;;;9.00;74.10;;;;;;5031723;28;20184;-89
2022/02/24 11:36:44;;;;;;;10.50;3.77;;;8.90;73.60;;;;;;5032946;28;20177;-90
2022/02/24 11:39:17;;;;;;;5.93;2.70;;;9.00;74.10;;;;;;5032758;28;20195;-89
2022/02/24 11:41:53;;;;;;;4.90;3.03;;;8.90;73.40;;;;;;5032973;28;20673;-89
2022/02/24 11:44:40;;;;;;;4.43;2.60;;;9.00;74.30;;;;;;5034321;28;20177;-90
2022/02/24 11:47:22;;;;;;;6.53;2.40;;;9.10;73.70;;;;;;5036919;28;20620;-89
2022/02/24 11:49:53;;;;;;;10.40;3.77;;;9.10;73.90;;;;;;5036598;28;20514;-89
2022/02/24 11:52:25;;;;;;;7.10;3.30;;;9.10;73.40;;;;;;5036471;28;20184;-89
2022/02/24 11:54:52;;;;;;;7.80;3.20;;;9.20;73.20;;;;;;5036287;28;20646;-90
2022/02/24 11:57:36;;;;;;;5.83;2.63;;;9.20;73.50;;;;;;5037851;28;20200;-88
2022/02/24 12:00:12;;;;;;;10.90;3.73;;;9.30;74.40;;;;;;5036910;28;20192;-88
2022/02/24 12:02:46;;;;;;;6.60;2.70;;;9.30;73.40;;;;;;5036007;28;20179;-88
2022/02/24 12:05:17;;;;;;;14.07;3.60;;;9.20;73.50;;;;;;5036705;28;20547;-91
2022/02/24 12:08:04;;;;;;;7.03;3.37;;;9.40;73.50;;;;;;5036066;28;20192;-91
2022/02/24 12:10:48;;;;;;;9.80;3.90;;;9.40;73.90;;;;;;5035119;28;20210;-89
2022/02/24 12:13:23;;;;;;;12.33;3.93;;;9.40;73.90;;;;;;5035951;28;20568;-88
2022/02/24 12:16:14;;;;;;;4.80;2.90;;;9.40;73.50;;;;;;5036279;28;20176;-89
2022/02/24 12:18:41;;;;;;;7.77;3.20;;;9.40;73.40;;;;;;5039378;28;20213;-89
2022/02/24 12:21:33;;;;;;;9.50;3.33;;;9.50;73.40;;;;;;5034806;28;20176;-89
2022/02/24 12:24:14;;;;;;;10.20;4.07;;;9.70;72.30;;;;;;5036710;28;20173;-91
2022/02/24 12:26:42;;;;;;;7.43;3.27;;;9.70;73.30;;;;;;5034935;28;20700;-91
2022/02/24 12:29:37;;;;;;;10.33;3.57;;;9.50;73.20;;;;;;5035061;28;20736;-91
2022/02/24 12:32:05;;;;;;;5.67;2.93;;;9.70;74.20;;;;;;5035038;28;20165;-91
2022/02/24 12:34:37;;;;;;;6.13;2.30;;;9.70;73.30;;;;;;5034941;28;20248;-91
2022/02/24 12:37:07;;;;;;;8.77;3.40;;;9.50;72.40;;;;;;5035344;28;20240;-91
2022/02/24 12:39:37;;;;;;;12.33;3.43;;;9.50;74.00;;;;;;5035578;28;20199;-92
2022/02/24 12:42:09;;;;;;;11.47;3.40;;;9.50;72.40;;;;;;5034891;28;20653;-88
2022/02/24 12:44:42;;;;;;;13.10;3.93;;;9.40;73.40;;;;;;5055507;28;20169;-91
2022/02/24 12:47:11;;;;;;;9.23;3.40;;;9.40;73.90;;;;;;5059698;28;20161;-92
2022/02/24 12:49:48;;;;;;;8.17;2.83;;;9.40;73.00;;;;;;5058994;28;20160;-91
2022/02/24 12:52:18;;;;;;;5.17;2.57;;;9.50;73.90;;;;;;5059255;28;20173;-91
2022/02/24 12:54:44;;;;;;;8.60;3.07;;;9.50;73.70;;;;;;5058855;28;20204;-91